Portada
METAR-TAF:

METAR-TAF

Aeroports :

Southern Illinois Airport

Carbondale-Murphysboro, Illinois, Estats Units d'Amèrica

latitud: 37-46-59N, longitud: 089-14-42W, altitud: 125 m

Observació

L'informe es va fer fa 27 minuts, a les 18:11 UTC
Vent 9 kt del Sud-Oest
Temperatura 30°C
Humitat 38%
Pressió 1018 hPa
Visibilitat: 16.1 km
Escasses núvols a una alçada de 200 ft

METAR: KMDH 021811Z 22009KT 10SM FEW002 30/14 A3006 RMK AO2 T03000139 $

Hora: 13:38 (18:38 UTC)


TAF: manca

Observacions i pronòstics meteorològics de més de 4000 aeroports (METAR i TAF).

Les estacions disponibles són els punts grocs i vermells al mapa.

Posi el ratolí al punt desitjat per veure el nom de l'estació.

Feu clic per veure les observacions i els pronòstics meteorològics.

Per canviar el mapa: feu clic els botons verds amb una creu de color negre per apropar; al botó verd amb un guió per allunyar la imatge; o en les fletxes verdes per a mapes adjacents.


METAR-TAF: